createdAt,value
2019-02-24T00:01:08.546Z,99752.11
2019-02-24T00:03:38.859Z,99748.64
2019-02-24T00:06:08.982Z,99742.08
2019-02-24T00:08:39.209Z,99727.98
2019-02-24T00:11:09.881Z,99741.13
2019-02-24T00:13:40.109Z,99735.74
2019-02-24T00:16:11.497Z,99734.85
2019-02-24T00:18:41.665Z,99730.97
2019-02-24T00:21:11.969Z,99727.39
2019-02-24T00:23:42.233Z,99728.19
2019-02-24T00:26:12.515Z,99725.67
2019-02-24T00:28:42.787Z,99725.17
2019-02-24T00:31:12.905Z,99729.35
2019-02-24T00:33:43.267Z,99721.66
2019-02-24T00:36:13.516Z,99726.08
2019-02-24T00:38:43.741Z,99726.93
2019-02-24T00:41:14.047Z,99729.25
2019-02-24T00:43:44.209Z,99732.45
2019-02-24T00:46:14.334Z,99718.45
2019-02-24T00:48:47.902Z,99717.19
2019-02-24T00:51:18.049Z,99720.95
2019-02-24T00:53:48.287Z,99716.36
2019-02-24T00:56:18.426Z,99716.78
2019-02-24T00:58:48.675Z,99716.00
2019-02-24T01:01:19.470Z,99716.02
2019-02-24T01:03:49.712Z,99713.19
2019-02-24T01:06:20.001Z,99709.39
2019-02-24T01:08:50.250Z,99704.63
2019-02-24T01:11:20.457Z,99707.77
2019-02-24T01:13:50.669Z,99706.80
2019-02-24T01:16:20.788Z,99705.14
2019-02-24T01:18:50.958Z,99708.53
2019-02-24T01:21:21.079Z,99704.89
2019-02-24T01:23:51.235Z,99698.96
2019-02-24T01:26:21.487Z,99697.79
2019-02-24T01:28:51.617Z,99700.55
2019-02-24T01:31:21.810Z,99696.39
2019-02-24T01:33:52.065Z,99696.19
2019-02-24T01:36:22.238Z,99695.19
2019-02-24T01:38:52.399Z,99686.90
2019-02-24T01:41:22.615Z,99682.81
2019-02-24T01:43:52.783Z,99673.53
2019-02-24T01:46:22.979Z,99679.77
2019-02-24T01:48:53.266Z,99673.25
2019-02-24T01:51:23.483Z,99670.31
2019-02-24T01:53:53.788Z,99665.46
2019-02-24T01:56:23.926Z,99660.55
2019-02-24T01:58:54.037Z,99659.98
2019-02-24T02:01:24.307Z,99667.05
2019-02-24T02:03:54.448Z,99655.95
2019-02-24T02:06:24.611Z,99660.00
2019-02-24T02:08:54.694Z,99660.52
2019-02-24T02:11:24.848Z,99658.09
2019-02-24T02:13:54.949Z,99650.36
2019-02-24T02:16:25.144Z,99651.98
2019-02-24T02:18:55.291Z,99652.29
2019-02-24T02:21:25.579Z,99649.48
2019-02-24T02:23:55.767Z,99643.05
2019-02-24T02:26:25.923Z,99638.70
2019-02-24T02:28:56.053Z,99641.47
2019-02-24T02:31:26.335Z,99641.59
2019-02-24T02:33:56.634Z,99634.34
2019-02-24T02:36:26.803Z,99632.61
2019-02-24T02:38:57.009Z,99634.95
2019-02-24T02:41:27.327Z,99634.75
2019-02-24T02:43:57.466Z,99637.57
2019-02-24T02:46:27.664Z,99638.20
2019-02-24T02:48:57.881Z,99639.32
2019-02-24T02:51:28.227Z,99639.16
2019-02-24T02:53:58.426Z,99638.15
2019-02-24T02:56:28.744Z,99641.13
2019-02-24T02:58:58.932Z,99635.30
2019-02-24T03:01:29.085Z,99637.28
2019-02-24T03:03:59.287Z,99639.08
2019-02-24T03:06:43.504Z,99640.37
2019-02-24T03:09:13.652Z,99643.70
2019-02-24T03:11:43.991Z,99635.52
2019-02-24T03:14:14.270Z,99632.33
2019-02-24T03:16:44.419Z,99635.69
2019-02-24T03:19:14.560Z,99629.45
2019-02-24T03:21:44.719Z,99633.78
2019-02-24T03:24:14.941Z,99636.34
2019-02-24T03:26:45.090Z,99637.53
2019-02-24T03:29:15.255Z,99646.33
2019-02-24T03:31:45.399Z,99642.45
2019-02-24T03:34:15.667Z,99639.38
2019-02-24T03:36:45.900Z,99640.58
2019-02-24T03:39:16.172Z,99646.84
2019-02-24T03:41:46.319Z,99646.50
2019-02-24T03:44:16.705Z,99652.34
2019-02-24T03:46:46.848Z,99656.47
2019-02-24T03:49:17.147Z,99660.48
2019-02-24T03:51:47.386Z,99662.11
2019-02-24T03:54:17.639Z,99660.80
2019-02-24T03:56:48.055Z,99654.70
2019-02-24T03:59:18.543Z,99658.78
2019-02-24T04:01:48.927Z,99661.64
2019-02-24T04:04:19.307Z,99662.94
2019-02-24T04:06:49.543Z,99662.33
2019-02-24T04:09:19.763Z,99666.19
2019-02-24T04:11:50.015Z,99666.19
2019-02-24T04:14:20.221Z,99664.52
2019-02-24T04:16:50.534Z,99667.97
2019-02-24T04:19:20.683Z,99663.94
2019-02-24T04:21:50.906Z,99667.75
2019-02-24T04:24:21.040Z,99659.04
2019-02-24T04:26:51.197Z,99668.28
2019-02-24T04:29:24.722Z,99666.08
2019-02-24T04:31:53.372Z,99674.63
2019-02-24T04:34:23.646Z,99673.08
2019-02-24T04:36:53.805Z,99677.11
2019-02-24T04:39:24.038Z,99663.97
2019-02-24T04:41:54.277Z,99670.39
2019-02-24T04:44:24.523Z,99671.80
2019-02-24T04:46:54.728Z,99676.69
2019-02-24T04:49:25.013Z,99677.63
2019-02-24T04:51:55.201Z,99684.41
2019-02-24T04:54:25.503Z,99687.11
2019-02-24T04:56:55.693Z,99692.83
2019-02-24T04:59:34.753Z,99690.94
2019-02-24T05:01:57.883Z,99694.47
2019-02-24T05:04:28.100Z,99695.66
2019-02-24T05:06:58.387Z,99685.69
2019-02-24T05:09:28.646Z,99697.20
2019-02-24T05:11:58.796Z,99696.84
2019-02-24T05:14:28.927Z,99695.79
2019-02-24T05:16:59.115Z,99698.52
2019-02-24T05:19:29.341Z,99695.55
2019-02-24T05:21:59.586Z,99702.67
2019-02-24T05:24:29.901Z,99708.14
2019-02-24T05:27:00.202Z,99705.52
2019-02-24T05:29:30.344Z,99709.90
2019-02-24T05:32:00.473Z,99708.27
2019-02-24T05:34:30.807Z,99711.10
2019-02-24T05:37:01.068Z,99703.03
2019-02-24T05:39:31.373Z,99709.44
2019-02-24T05:42:01.539Z,99706.11
2019-02-24T05:44:31.687Z,99713.70
2019-02-24T05:47:01.952Z,99714.29
2019-02-24T05:49:32.184Z,99712.97
2019-02-24T05:52:02.401Z,99702.31
2019-02-24T05:54:32.615Z,99717.59
2019-02-24T05:57:02.768Z,99711.20
2019-02-24T05:59:33.050Z,99712.72
2019-02-24T06:02:03.257Z,99702.20
2019-02-24T06:04:33.417Z,99706.33
2019-02-24T06:07:03.656Z,99703.98
2019-02-24T06:09:33.882Z,99699.46
2019-02-24T06:12:04.127Z,99697.58
2019-02-24T06:14:34.423Z,99696.02
2019-02-24T06:17:04.690Z,99702.66
2019-02-24T06:19:34.931Z,99702.45
2019-02-24T06:22:05.218Z,99702.08
2019-02-24T06:24:35.371Z,99709.91
2019-02-24T06:27:05.656Z,99719.89
2019-02-24T06:29:35.871Z,99724.50
2019-02-24T06:32:06.052Z,99734.47
2019-02-24T06:34:36.191Z,99737.17
2019-02-24T06:37:06.304Z,99749.38
2019-02-24T06:39:36.535Z,99744.88
2019-02-24T06:42:06.645Z,99746.10
2019-02-24T06:44:36.897Z,99758.33
2019-02-24T06:47:07.177Z,99755.95
2019-02-24T06:49:37.320Z,99761.28
2019-02-24T06:52:07.466Z,99766.13
2019-02-24T06:54:37.598Z,99766.62
2019-02-24T06:57:07.819Z,99772.53
2019-02-24T06:59:38.074Z,99776.34
2019-02-24T07:02:08.300Z,99789.28
2019-02-24T07:04:38.509Z,99793.33
2019-02-24T07:07:08.721Z,99802.59
2019-02-24T07:09:38.900Z,99809.22
2019-02-24T07:12:09.149Z,99810.42
2019-02-24T07:14:39.414Z,99810.53
2019-02-24T07:17:09.693Z,99808.62
2019-02-24T07:19:39.907Z,99806.34
2019-02-24T07:22:10.032Z,99805.17
2019-02-24T07:24:40.285Z,99807.51
2019-02-24T07:27:10.482Z,99808.13
2019-02-24T07:29:40.642Z,99810.08
2019-02-24T07:32:10.849Z,99811.45
2019-02-24T07:34:41.002Z,99815.11
2019-02-24T07:37:13.296Z,99829.75
2019-02-24T07:39:43.112Z,99833.92
2019-02-24T07:42:13.242Z,99839.38
2019-02-24T07:44:43.528Z,99838.47
2019-02-24T07:47:13.698Z,99841.16
2019-02-24T07:49:43.842Z,99835.93
2019-02-24T07:52:14.022Z,99842.97
2019-02-24T07:54:44.167Z,99850.41
2019-02-24T07:57:14.431Z,99850.11
2019-02-24T07:59:44.643Z,99848.69
2019-02-24T08:02:14.855Z,99850.73
2019-02-24T08:04:45.056Z,99852.78
2019-02-24T08:07:15.292Z,99841.82
2019-02-24T08:09:45.426Z,99843.66
2019-02-24T08:12:15.598Z,99846.75
2019-02-24T08:14:45.996Z,99842.75
2019-02-24T08:17:16.337Z,99846.77
2019-02-24T08:19:46.546Z,99853.31
2019-02-24T08:22:16.710Z,99858.99
2019-02-24T08:24:47.034Z,99853.75
2019-02-24T08:27:17.195Z,99852.88
2019-02-24T08:29:47.693Z,99852.12
2019-02-24T08:32:17.857Z,99841.84
2019-02-24T08:34:47.976Z,99842.44
2019-02-24T08:37:19.446Z,99845.06
2019-02-24T08:39:49.579Z,99847.13
2019-02-24T08:42:19.823Z,99849.33
2019-02-24T08:44:50.111Z,99833.31
2019-02-24T08:47:20.459Z,99839.03
2019-02-24T08:49:50.692Z,99832.39
2019-02-24T08:52:20.917Z,99823.25
2019-02-24T08:54:51.279Z,99832.88
2019-02-24T08:57:21.572Z,99826.57
2019-02-24T08:59:51.785Z,99822.70
2019-02-24T09:02:22.022Z,99821.83
2019-02-24T09:04:52.303Z,99818.50
2019-02-24T09:07:22.564Z,99828.05
2019-02-24T09:09:52.898Z,99818.28
2019-02-24T09:12:23.101Z,99821.27
2019-02-24T09:14:53.373Z,99816.67
2019-02-24T09:17:23.646Z,99822.27
2019-02-24T09:19:53.992Z,99817.58
2019-02-24T09:22:24.421Z,99819.96
2019-02-24T09:24:55.088Z,99826.45
2019-02-24T09:27:25.210Z,99820.88
2019-02-24T09:29:55.441Z,99822.52
2019-02-24T09:32:25.724Z,99813.65
2019-02-24T09:34:55.947Z,99805.28
2019-02-24T09:37:26.181Z,99795.23
2019-02-24T09:39:56.329Z,99785.98
2019-02-24T09:42:26.470Z,99786.66
2019-02-24T09:44:56.740Z,99790.13
2019-02-24T09:47:27.125Z,99783.50
2019-02-24T09:49:57.327Z,99775.97
2019-02-24T09:52:27.522Z,99764.84
2019-02-24T09:54:57.833Z,99765.28
2019-02-24T09:57:28.845Z,99760.08
2019-02-24T09:59:59.095Z,99754.16
2019-02-24T10:02:29.466Z,99752.50
2019-02-24T10:04:59.740Z,99746.56
2019-02-24T10:07:30.099Z,99743.98
2019-02-24T10:10:00.429Z,99742.39
2019-02-24T10:12:30.617Z,99737.70
2019-02-24T10:15:00.954Z,99736.80
2019-02-24T10:17:31.203Z,99733.16
2019-02-24T10:20:01.509Z,99736.23
2019-02-24T10:22:31.897Z,99734.48
2019-02-24T10:25:05.875Z,99736.19
2019-02-24T10:27:35.816Z,99736.94
2019-02-24T10:30:06.293Z,99741.16
2019-02-24T10:32:36.615Z,99735.83
2019-02-24T10:35:07.329Z,99729.45
2019-02-24T10:37:37.674Z,99720.61
2019-02-24T10:40:12.398Z,99712.27
2019-02-24T10:42:42.790Z,99710.67
2019-02-24T10:45:14.075Z,99717.10
2019-02-24T10:47:44.290Z,99720.52
2019-02-24T10:50:14.821Z,99714.43
2019-02-24T10:52:45.082Z,99712.44
2019-02-24T10:55:15.494Z,99712.77
2019-02-24T10:57:45.824Z,99708.78
2019-02-24T11:00:16.267Z,99702.80
2019-02-24T11:02:46.692Z,99708.64
2019-02-24T11:05:17.254Z,99718.66
2019-02-24T11:07:47.572Z,99724.67
2019-02-24T11:10:17.786Z,99724.97
2019-02-24T11:12:48.208Z,99733.98
2019-02-24T11:15:18.615Z,99729.14
2019-02-24T11:17:48.861Z,99731.30
2019-02-24T11:20:19.247Z,99721.69
2019-02-24T11:22:49.547Z,99731.48
2019-02-24T11:25:19.855Z,99730.08
2019-02-24T11:27:50.155Z,99729.81
2019-02-24T11:30:39.668Z,99727.39
2019-02-24T11:33:10.461Z,99723.85
2019-02-24T11:35:41.502Z,99724.75
2019-02-24T11:38:11.993Z,99720.09
2019-02-24T11:40:42.431Z,99723.50
2019-02-24T11:43:12.806Z,99714.77
2019-02-24T11:45:42.971Z,99715.86
2019-02-24T11:48:13.232Z,99710.08
2019-02-24T11:50:43.545Z,99705.61
2019-02-24T11:53:13.783Z,99701.47
2019-02-24T11:55:44.100Z,99702.97
2019-02-24T11:58:14.454Z,99699.25
2019-02-24T12:00:44.813Z,99698.20
2019-02-24T12:03:15.158Z,99700.52
2019-02-24T12:05:45.351Z,99708.77
2019-02-24T12:08:15.611Z,99695.17
2019-02-24T12:10:45.832Z,99698.81
2019-02-24T12:13:16.116Z,99695.74
2019-02-24T12:15:46.425Z,99692.48
2019-02-24T12:18:16.665Z,99691.83
2019-02-24T12:20:46.970Z,99689.45
2019-02-24T12:23:17.296Z,99698.63
2019-02-24T12:25:47.650Z,99693.59
2019-02-24T12:28:18.020Z,99700.41
2019-02-24T12:30:48.171Z,99702.91
2019-02-24T12:33:18.495Z,99712.41
2019-02-24T12:35:48.810Z,99702.28
2019-02-24T12:38:19.214Z,99705.97
2019-02-24T12:40:49.608Z,99704.37
2019-02-24T12:43:20.005Z,99704.46
2019-02-24T12:45:50.211Z,99705.48
2019-02-24T12:48:20.455Z,99704.46
2019-02-24T12:50:50.844Z,99698.19
2019-02-24T12:53:21.091Z,99705.59
2019-02-24T12:55:51.337Z,99704.05
2019-02-24T12:58:21.582Z,99705.39
2019-02-24T13:00:52.069Z,99698.63
2019-02-24T13:03:24.249Z,99699.42
2019-02-24T13:05:54.699Z,99699.94
2019-02-24T13:08:24.947Z,99705.06
2019-02-24T13:10:55.376Z,99708.97
2019-02-24T13:13:25.840Z,99710.12
2019-02-24T13:15:56.049Z,99706.02
2019-02-24T13:18:26.323Z,99705.68
2019-02-24T13:20:56.701Z,99706.41
2019-02-24T13:23:27.102Z,99704.98
2019-02-24T13:25:57.411Z,99698.96
2019-02-24T13:28:27.851Z,99699.05
2019-02-24T13:30:58.132Z,99690.44
2019-02-24T13:33:28.293Z,99694.53
2019-02-24T13:35:58.492Z,99697.23
2019-02-24T13:38:28.856Z,99692.48
2019-02-24T13:40:58.997Z,99690.72
2019-02-24T13:43:29.312Z,99692.77
2019-02-24T13:45:59.680Z,99688.71
2019-02-24T13:48:29.978Z,99675.16
2019-02-24T13:51:00.359Z,99671.95
2019-02-24T13:53:30.633Z,99662.23
2019-02-24T13:56:00.843Z,99661.00
2019-02-24T13:58:31.127Z,99661.86
2019-02-24T14:01:01.479Z,99654.60
2019-02-24T14:03:31.863Z,99656.48
2019-02-24T14:06:02.293Z,99657.20
2019-02-24T14:08:32.421Z,99665.20
2019-02-24T14:11:02.750Z,99662.42
2019-02-24T14:13:33.093Z,99665.97
2019-02-24T14:16:03.505Z,99668.36
2019-02-24T14:18:33.782Z,99665.37
2019-02-24T14:21:04.130Z,99662.12
2019-02-24T14:23:34.374Z,99660.00
2019-02-24T14:26:04.728Z,99655.89
2019-02-24T14:28:35.048Z,99659.22
2019-02-24T14:31:05.443Z,99654.17
2019-02-24T14:33:35.724Z,99648.92
2019-02-24T14:36:05.919Z,99644.65
2019-02-24T14:38:36.129Z,99647.56
2019-02-24T14:41:06.530Z,99652.58
2019-02-24T14:43:36.782Z,99657.65
2019-02-24T14:46:07.046Z,99650.13
2019-02-24T14:48:37.363Z,99658.80
2019-02-24T14:51:07.508Z,99658.27
2019-02-24T14:53:37.723Z,99658.27
2019-02-24T14:56:08.053Z,99658.56
2019-02-24T14:58:38.347Z,99662.23
2019-02-24T15:01:08.678Z,99675.21
2019-02-24T15:03:38.906Z,99672.64
2019-02-24T15:06:09.192Z,99673.67
2019-02-24T15:08:39.492Z,99675.52
2019-02-24T15:11:09.657Z,99674.83
2019-02-24T15:13:39.892Z,99674.63
2019-02-24T15:16:11.776Z,99682.55
2019-02-24T15:18:42.102Z,99678.70
2019-02-24T15:21:12.636Z,99683.29
2019-02-24T15:23:42.938Z,99679.47
2019-02-24T15:26:13.282Z,99679.54
2019-02-24T15:28:43.525Z,99679.33
2019-02-24T15:31:13.873Z,99678.39
2019-02-24T15:33:44.075Z,99671.56
2019-02-24T15:36:14.491Z,99668.91
2019-02-24T15:38:44.808Z,99670.23
2019-02-24T15:41:15.203Z,99663.61
2019-02-24T15:43:45.383Z,99664.94
2019-02-24T15:46:15.756Z,99663.45
2019-02-24T15:48:46.121Z,99656.34
2019-02-24T15:51:16.484Z,99663.61
2019-02-24T15:53:47.102Z,99659.02
2019-02-24T15:56:17.443Z,99664.17
2019-02-24T15:58:47.694Z,99659.77
2019-02-24T16:01:18.127Z,99667.04
2019-02-24T16:03:48.477Z,99661.58
2019-02-24T16:06:18.948Z,99661.78
2019-02-24T16:08:49.166Z,99659.34
2019-02-24T16:11:19.593Z,99650.63
2019-02-24T16:13:49.933Z,99647.44
2019-02-24T16:16:20.288Z,99650.25
2019-02-24T16:18:50.677Z,99655.50
2019-02-24T16:21:20.987Z,99657.98
2019-02-24T16:23:51.146Z,99656.97
2019-02-24T16:26:21.468Z,99657.48
2019-02-24T16:28:51.738Z,99658.01
2019-02-24T16:31:22.119Z,99659.84
2019-02-24T16:33:52.475Z,99659.31
2019-02-24T16:36:22.838Z,99652.85
2019-02-24T16:38:53.009Z,99650.06
2019-02-24T16:41:23.269Z,99647.28
2019-02-24T16:43:53.662Z,99654.86
2019-02-24T16:46:24.179Z,99666.14
2019-02-24T16:48:54.415Z,99668.77
2019-02-24T16:51:24.685Z,99676.83
2019-02-24T16:53:54.932Z,99677.75
2019-02-24T16:56:25.190Z,99677.06
2019-02-24T16:58:55.480Z,99688.41
2019-02-24T17:01:25.831Z,99689.06
2019-02-24T17:03:56.197Z,99683.78
2019-02-24T17:06:26.529Z,99689.41
2019-02-24T17:09:01.286Z,99680.89
2019-02-24T17:11:28.884Z,99686.81
2019-02-24T17:13:59.368Z,99686.13
2019-02-24T17:16:29.705Z,99696.11
2019-02-24T17:19:00.050Z,99698.94
2019-02-24T17:21:30.308Z,99703.59
2019-02-24T17:24:00.543Z,99710.17
2019-02-24T17:26:30.833Z,99715.12
2019-02-24T17:29:01.287Z,99715.61
2019-02-24T17:31:31.713Z,99717.95
2019-02-24T17:34:02.143Z,99717.20
2019-02-24T17:36:32.451Z,99728.80
2019-02-24T17:39:02.744Z,99733.48
2019-02-24T17:41:32.988Z,99741.52
2019-02-24T17:44:03.214Z,99753.91
2019-02-24T17:46:33.606Z,99753.70
2019-02-24T17:49:03.896Z,99757.37
2019-02-24T17:51:34.110Z,99759.89
2019-02-24T17:54:04.455Z,99759.46
2019-02-24T17:56:34.798Z,99771.84
2019-02-24T17:59:05.068Z,99767.41
2019-02-24T18:01:35.393Z,99767.14
2019-02-24T18:04:05.750Z,99761.34
2019-02-24T18:06:35.927Z,99762.70
2019-02-24T18:09:07.078Z,99762.87
2019-02-24T18:11:37.431Z,99765.88
2019-02-24T18:14:07.896Z,99767.20
2019-02-24T18:16:38.312Z,99768.17
2019-02-24T18:19:08.571Z,99771.98
2019-02-24T18:21:38.879Z,99767.61
2019-02-24T18:24:09.234Z,99775.56
2019-02-24T18:26:39.506Z,99773.41
2019-02-24T18:29:09.883Z,99782.69
2019-02-24T18:31:41.658Z,99781.39
2019-02-24T18:34:12.137Z,99785.80
2019-02-24T18:36:42.453Z,99782.81
2019-02-24T18:39:12.998Z,99780.33
2019-02-24T18:41:43.269Z,99781.66
2019-02-24T18:44:13.547Z,99774.98
2019-02-24T18:46:43.764Z,99778.11
2019-02-24T18:49:14.118Z,99784.50
2019-02-24T18:51:44.621Z,99769.46
2019-02-24T18:54:14.892Z,99771.58
2019-02-24T18:56:45.483Z,99775.42
2019-02-24T18:59:15.970Z,99770.84
2019-02-24T19:01:46.401Z,99768.31
2019-02-24T19:04:16.668Z,99767.82
2019-02-24T19:06:46.960Z,99771.16
2019-02-24T19:09:18.358Z,99768.62
2019-02-24T19:11:48.648Z,99765.77
2019-02-24T19:14:18.942Z,99769.90
2019-02-24T19:16:49.311Z,99763.20
2019-02-24T19:19:25.378Z,99758.15
2019-02-24T19:21:51.458Z,99755.59
2019-02-24T19:24:21.804Z,99755.70
2019-02-24T19:26:52.213Z,99758.17
2019-02-24T19:29:24.537Z,99746.64
2019-02-24T19:31:54.971Z,99755.84
2019-02-24T19:34:26.312Z,99748.27
2019-02-24T19:36:56.737Z,99753.64
2019-02-24T19:39:27.070Z,99748.48
2019-02-24T19:41:57.460Z,99757.30
2019-02-24T19:44:27.742Z,99767.91
2019-02-24T19:46:58.163Z,99766.72
2019-02-24T19:49:28.544Z,99766.34
2019-02-24T19:51:59.059Z,99774.32
2019-02-24T19:54:29.406Z,99768.30
2019-02-24T19:56:59.605Z,99775.37
2019-02-24T19:59:29.838Z,99782.78
2019-02-24T20:01:59.940Z,99783.86
2019-02-24T20:04:30.299Z,99791.25
2019-02-24T20:07:00.565Z,99796.77
2019-02-24T20:09:30.878Z,99795.30
2019-02-24T20:12:01.205Z,99796.81
2019-02-24T20:14:31.487Z,99792.10
2019-02-24T20:17:01.810Z,99792.45
2019-02-24T20:19:32.150Z,99790.28
2019-02-24T20:22:02.488Z,99789.48
2019-02-24T20:24:33.200Z,99791.62
2019-02-24T20:27:03.615Z,99792.09
2019-02-24T20:29:33.933Z,99784.85
2019-02-24T20:32:04.332Z,99788.48
2019-02-24T20:34:34.442Z,99785.50
2019-02-24T20:37:04.726Z,99780.88
2019-02-24T20:39:34.924Z,99786.13
2019-02-24T20:42:05.299Z,99778.72
2019-02-24T20:44:35.774Z,99781.87
2019-02-24T20:47:06.127Z,99777.22
2019-02-24T20:49:36.325Z,99779.00
2019-02-24T20:52:06.672Z,99777.42
2019-02-24T20:54:36.984Z,99773.95
2019-02-24T20:57:07.407Z,99773.47
2019-02-24T20:59:37.632Z,99776.09
2019-02-24T21:02:08.088Z,99780.20
2019-02-24T21:04:38.277Z,99783.81
2019-02-24T21:07:09.093Z,99780.84
2019-02-24T21:09:40.320Z,99775.72
2019-02-24T21:12:11.440Z,99783.48
2019-02-24T21:14:43.226Z,99776.19
2019-02-24T21:17:14.112Z,99786.84
2019-02-24T21:19:45.396Z,99779.34
2019-02-24T21:22:16.205Z,99785.73
2019-02-24T21:24:47.739Z,99786.16
2019-02-24T21:27:18.113Z,99780.98
2019-02-24T21:29:48.546Z,99782.77
2019-02-24T21:32:18.939Z,99776.59
2019-02-24T21:34:49.211Z,99781.51
2019-02-24T21:37:19.478Z,99781.25
2019-02-24T21:39:49.681Z,99778.88
2019-02-24T21:42:19.850Z,99782.39
2019-02-24T21:44:50.145Z,99781.45
2019-02-24T21:47:20.470Z,99775.88
2019-02-24T21:49:50.774Z,99775.09
2019-02-24T21:52:21.173Z,99782.95
2019-02-24T21:54:51.506Z,99778.62
2019-02-24T21:57:21.768Z,99775.67
2019-02-24T21:59:51.906Z,99778.81
2019-02-24T22:02:22.084Z,99775.17
2019-02-24T22:04:52.232Z,99774.73
2019-02-24T22:07:22.410Z,99771.38
2019-02-24T22:09:52.627Z,99764.92
2019-02-24T22:12:22.893Z,99769.78
2019-02-24T22:14:53.094Z,99773.44
2019-02-24T22:17:23.345Z,99778.33
2019-02-24T22:19:53.480Z,99783.20
2019-02-24T22:22:23.894Z,99782.59
2019-02-24T22:24:53.994Z,99775.54
2019-02-24T22:27:25.064Z,99785.92
2019-02-24T22:29:55.366Z,99782.55
2019-02-24T22:32:25.645Z,99785.22
2019-02-24T22:34:56.026Z,99783.37
2019-02-24T22:37:26.320Z,99787.08
2019-02-24T22:39:56.701Z,99796.66
2019-02-24T22:42:27.103Z,99791.94
2019-02-24T22:44:57.328Z,99805.52
2019-02-24T22:47:27.492Z,99800.57
2019-02-24T22:49:57.658Z,99799.24
2019-02-24T22:52:27.883Z,99793.62
2019-02-24T22:54:58.106Z,99786.56
2019-02-24T22:57:28.436Z,99795.42
2019-02-24T22:59:58.640Z,99792.45
2019-02-24T23:02:28.971Z,99797.28
2019-02-24T23:04:59.374Z,99801.89
2019-02-24T23:07:29.707Z,99796.20
2019-02-24T23:09:59.972Z,99790.02
2019-02-24T23:12:30.154Z,99793.28
2019-02-24T23:15:00.372Z,99800.45
2019-02-24T23:17:30.958Z,99800.75
2019-02-24T23:20:01.100Z,99788.99
2019-02-24T23:22:31.261Z,99785.34
2019-02-24T23:25:01.458Z,99790.82
2019-02-24T23:27:31.789Z,99801.25
2019-02-24T23:30:02.170Z,99795.72
2019-02-24T23:32:32.322Z,99793.80
2019-02-24T23:35:02.682Z,99805.39
2019-02-24T23:37:33.039Z,99817.55
2019-02-24T23:40:03.286Z,99808.94
2019-02-24T23:42:33.736Z,99807.95
2019-02-24T23:45:10.192Z,99810.12
2019-02-24T23:47:36.058Z,99818.06
2019-02-24T23:50:08.669Z,99821.50
2019-02-24T23:52:38.994Z,99809.75
2019-02-24T23:55:09.556Z,99803.63
2019-02-24T23:57:39.854Z,99790.75
